Time;durP1;ratioP1;P1;durP2;ratioP2;P2;SDS_P1;SDS_P2;PMS_P1;PMS_P2;Temp;Humidity;BMP_temperature;BMP_pressure;BME280_temperature;BME280_humidity;BME280_pressure;Samples;Min_cycle;Max_cycle;Signal;HPM_P1;HPM_P2
2022/11/29 00:01:33;;;;;;;15.80;9.05;;;8.40;99.90;;;;;;5053471;28;20029;-80
2022/11/29 00:03:59;;;;;;;14.63;9.07;;;8.40;99.90;;;;;;5055511;28;20021;-80
2022/11/29 00:06:27;;;;;;;15.35;8.90;;;8.40;99.90;;;;;;5054282;28;20090;-80
2022/11/29 00:08:54;;;;;;;15.77;9.13;;;8.30;99.90;;;;;;5054197;28;20029;-79
2022/11/29 00:14:14;;;;;;;16.52;9.07;;;8.40;99.90;;;;;;5053787;28;20417;-80
2022/11/29 00:16:41;;;;;;;16.83;8.95;;;8.40;99.90;;;;;;5052438;28;20029;-84
2022/11/29 00:19:11;;;;;;;16.92;8.82;;;8.40;99.90;;;;;;5053508;28;20033;-81
2022/11/29 00:21:37;;;;;;;16.88;9.45;;;8.40;99.90;;;;;;5051661;28;20017;-82
2022/11/29 00:24:02;;;;;;;16.88;9.75;;;8.40;99.90;;;;;;5052257;28;20441;-81
2022/11/29 00:26:28;;;;;;;18.13;9.90;;;8.40;99.90;;;;;;5052123;28;20020;-81
2022/11/29 00:28:54;;;;;;;17.65;9.95;;;8.40;99.90;;;;;;5053285;28;20059;-81
2022/11/29 00:31:26;;;;;;;17.45;10.07;;;8.40;99.90;;;;;;5053194;28;20104;-80
2022/11/29 00:33:51;;;;;;;;;;;8.40;99.90;;;;;;5053007;28;20119;-81
2022/11/29 00:36:17;;;;;;;15.32;8.88;;;8.40;99.90;;;;;;5053638;28;20395;-82
2022/11/29 00:38:43;;;;;;;15.25;9.35;;;8.40;99.90;;;;;;5053188;28;20056;-82
2022/11/29 00:41:09;;;;;;;16.23;9.55;;;8.40;99.90;;;;;;5052572;28;20064;-82
2022/11/29 00:43:35;;;;;;;17.58;9.20;;;8.30;99.90;;;;;;5053696;28;20044;-82
2022/11/29 00:46:01;;;;;;;16.35;9.32;;;8.30;99.90;;;;;;5057383;28;20512;-82
2022/11/29 00:48:26;;;;;;;16.33;9.38;;;8.40;99.90;;;;;;5055748;28;20500;-82
2022/11/29 00:50:52;;;;;;;18.75;10.30;;;8.30;99.90;;;;;;5056348;28;20033;-81
2022/11/29 00:53:18;;;;;;;16.70;9.48;;;8.40;99.90;;;;;;5056100;28;20029;-81
2022/11/29 00:55:46;;;;;;;16.80;9.25;;;8.40;99.90;;;;;;5056874;28;20040;-81
2022/11/29 00:58:11;;;;;;;16.35;8.80;;;8.40;99.90;;;;;;5056104;28;20037;-81
2022/11/29 01:00:37;;;;;;;15.82;9.07;;;8.30;99.90;;;;;;5055449;28;20021;-81
2022/11/29 01:03:02;;;;;;;15.85;8.98;;;8.30;99.90;;;;;;5057091;28;20079;-81
2022/11/29 01:05:30;;;;;;;14.82;8.50;;;8.40;99.90;;;;;;5056433;28;20451;-79
2022/11/29 01:07:55;;;;;;;14.93;8.95;;;8.40;99.90;;;;;;5055708;28;20036;-79
2022/11/29 01:10:21;;;;;;;15.93;9.02;;;8.40;99.90;;;;;;5056715;28;20021;-79
2022/11/29 01:12:46;;;;;;;15.60;8.35;;;8.40;99.90;;;;;;5056144;28;20167;-79
2022/11/29 01:15:12;;;;;;;16.75;8.00;;;8.40;99.90;;;;;;5056468;28;20021;-79
2022/11/29 01:17:38;;;;;;;13.75;7.57;;;8.40;99.90;;;;;;5055355;28;20052;-79
2022/11/29 01:20:06;;;;;;;14.38;7.03;;;8.40;99.90;;;;;;5055122;28;20033;-78
2022/11/29 01:22:33;;;;;;;11.85;7.90;;;8.40;99.90;;;;;;5055241;28;20029;-79
2022/11/29 01:24:59;;;;;;;13.60;7.60;;;8.40;99.90;;;;;;5055597;28;20032;-79
2022/11/29 01:27:25;;;;;;;10.80;6.57;;;8.40;99.90;;;;;;5054974;28;20025;-79
2022/11/29 01:29:50;;;;;;;11.07;6.03;;;8.40;99.90;;;;;;5056277;28;20029;-79
2022/11/29 01:32:16;;;;;;;10.57;6.32;;;8.40;99.90;;;;;;5055197;28;20021;-79
2022/11/29 01:34:41;;;;;;;9.70;6.25;;;8.40;99.90;;;;;;5055903;28;20512;-79
2022/11/29 01:37:07;;;;;;;13.82;6.78;;;8.40;99.90;;;;;;5056093;28;20025;-79
2022/11/29 01:39:33;;;;;;;9.20;5.80;;;8.40;99.90;;;;;;5054794;28;20033;-79
2022/11/29 01:41:59;;;;;;;9.70;5.50;;;8.40;99.90;;;;;;5055036;28;20025;-79
2022/11/29 01:44:25;;;;;;;11.23;6.30;;;8.40;99.90;;;;;;5055668;28;20450;-81
2022/11/29 01:46:52;;;;;;;9.45;5.90;;;8.40;99.90;;;;;;5054625;28;20116;-79
2022/11/29 01:49:25;;;;;;;9.00;5.53;;;8.40;99.90;;;;;;5055086;28;20056;-79
2022/11/29 01:52:28;;;;;;;8.90;5.53;;;8.40;99.90;;;;;;5054602;28;20028;-79
2022/11/29 01:55:02;;;;;;;8.82;5.47;;;8.40;99.90;;;;;;5054748;28;20363;-79
2022/11/29 01:57:28;;;;;;;10.20;5.70;;;8.50;99.90;;;;;;5053938;28;20024;-79
2022/11/29 02:00:02;;;;;;;10.10;5.72;;;8.50;99.90;;;;;;5055557;28;20040;-79
2022/11/29 02:02:52;;;;;;;10.32;5.95;;;8.50;99.90;;;;;;5053536;28;20029;-80
2022/11/29 02:05:20;;;;;;;9.60;5.75;;;8.40;99.90;;;;;;5054750;28;20075;-79
2022/11/29 02:07:49;;;;;;;10.80;6.10;;;8.40;99.90;;;;;;5054134;28;20197;-80
2022/11/29 02:10:16;;;;;;;10.55;6.35;;;8.40;99.90;;;;;;5054546;28;20060;-79
2022/11/29 02:13:26;;;;;;;10.75;6.15;;;8.50;99.90;;;;;;5053563;28;20245;-80
2022/11/29 02:15:54;;;;;;;12.52;6.63;;;8.50;99.90;;;;;;5047567;28;20045;-80
2022/11/29 02:18:42;;;;;;;12.65;6.75;;;8.50;99.90;;;;;;5054306;28;20025;-79
2022/11/29 02:21:19;;;;;;;11.38;6.22;;;8.50;99.90;;;;;;5055530;28;20036;-81
2022/11/29 02:24:19;;;;;;;10.65;6.32;;;8.40;99.90;;;;;;5053789;28;20035;-80
2022/11/29 02:26:53;;;;;;;13.07;6.88;;;8.40;99.90;;;;;;5053779;28;20021;-80
2022/11/29 02:29:28;;;;;;;14.40;6.93;;;8.50;99.90;;;;;;5055339;28;20545;-80
2022/11/29 02:32:18;;;;;;;12.40;7.00;;;8.50;99.90;;;;;;5055467;28;20024;-80
2022/11/29 02:35:13;;;;;;;12.90;6.82;;;8.40;99.90;;;;;;5054760;28;20025;-79
2022/11/29 02:37:42;;;;;;;11.90;7.13;;;8.50;99.90;;;;;;5053506;28;20024;-80
2022/11/29 02:40:45;;;;;;;11.13;6.55;;;8.50;99.90;;;;;;5054985;28;20535;-80
2022/11/29 02:43:29;;;;;;;12.75;6.82;;;8.50;99.90;;;;;;5055015;28;20037;-80
2022/11/29 02:46:25;;;;;;;16.73;7.15;;;8.50;99.90;;;;;;5054904;28;20057;-79
2022/11/29 02:49:18;;;;;;;13.18;7.07;;;8.50;99.90;;;;;;5053835;28;20059;-80
2022/11/29 02:52:07;;;;;;;13.55;7.38;;;8.50;99.90;;;;;;5054122;28;20025;-79
2022/11/29 02:55:01;;;;;;;12.82;6.90;;;8.50;99.90;;;;;;5053313;28;20120;-79
2022/11/29 02:57:44;;;;;;;11.55;6.38;;;8.50;99.90;;;;;;5048159;28;20132;-79
2022/11/29 03:00:20;;;;;;;15.35;6.65;;;8.50;99.90;;;;;;5054832;28;20063;-80
2022/11/29 03:03:10;;;;;;;12.85;6.30;;;8.50;99.90;;;;;;5053245;28;20021;-80
2022/11/29 03:05:40;;;;;;;13.02;6.70;;;8.50;99.90;;;;;;5052833;28;20533;-80
2022/11/29 03:08:23;;;;;;;12.38;6.55;;;8.50;99.90;;;;;;5052965;28;20482;-80
2022/11/29 03:11:08;;;;;;;13.82;6.72;;;8.50;99.90;;;;;;5052880;28;20292;-80
2022/11/29 03:13:44;;;;;;;12.20;6.28;;;8.50;99.90;;;;;;5053192;28;20047;-81
2022/11/29 03:16:22;;;;;;;15.07;6.85;;;8.50;99.90;;;;;;5054634;28;20104;-80
2022/11/29 03:19:09;;;;;;;12.45;6.82;;;8.50;99.90;;;;;;5052861;28;20028;-80
2022/11/29 03:21:42;;;;;;;14.93;5.82;;;8.50;99.90;;;;;;5053027;28;20029;-79
2022/11/29 03:24:38;;;;;;;12.80;6.28;;;8.50;99.90;;;;;;5054282;28;20035;-80
2022/11/29 03:27:12;;;;;;;14.70;6.60;;;8.50;99.90;;;;;;5046343;28;20041;-79
2022/11/29 03:29:51;;;;;;;10.98;5.75;;;8.50;99.90;;;;;;5052567;28;20032;-80
2022/11/29 03:32:27;;;;;;;12.02;5.95;;;8.50;99.90;;;;;;5053133;28;20071;-80
2022/11/29 03:35:08;;;;;;;10.63;6.05;;;8.50;99.90;;;;;;5052652;28;20036;-79
2022/11/29 03:37:57;;;;;;;14.60;6.72;;;8.50;99.90;;;;;;5053644;28;20083;-80
2022/11/29 03:40:51;;;;;;;13.73;6.05;;;8.50;99.90;;;;;;5053083;28;20021;-80
2022/11/29 03:43:26;;;;;;;12.27;6.32;;;8.50;99.90;;;;;;5053763;28;20061;-80
2022/11/29 03:46:10;;;;;;;17.20;6.05;;;8.50;99.90;;;;;;5052389;28;20065;-80
2022/11/29 03:48:45;;;;;;;12.57;6.18;;;8.60;99.90;;;;;;5053630;28;20035;-80
2022/11/29 03:51:17;;;;;;;9.73;5.50;;;8.50;99.90;;;;;;5053885;28;20031;-79
2022/11/29 03:54:00;;;;;;;15.07;5.47;;;8.60;99.90;;;;;;5052450;28;20036;-80
2022/11/29 03:56:35;;;;;;;14.85;5.45;;;8.60;99.90;;;;;;5052715;28;20390;-78
2022/11/29 03:59:00;;;;;;;11.07;5.85;;;8.60;99.90;;;;;;5052761;28;20025;-80
2022/11/29 04:02:05;;;;;;;14.32;6.15;;;8.60;99.90;;;;;;5052906;28;20028;-80
2022/11/29 04:05:08;;;;;;;13.88;6.63;;;8.50;99.90;;;;;;5052354;28;20032;-80
2022/11/29 04:07:55;;;;;;;16.00;6.03;;;8.60;99.90;;;;;;5053332;28;20462;-81
2022/11/29 04:10:26;;;;;;;13.90;5.50;;;8.50;99.90;;;;;;5053660;28;20033;-80
2022/11/29 04:13:16;;;;;;;11.27;6.13;;;8.50;99.90;;;;;;5053222;28;20509;-80
2022/11/29 04:15:57;;;;;;;11.85;5.72;;;8.60;99.90;;;;;;5052232;28;20865;-79
2022/11/29 04:18:42;;;;;;;11.57;6.38;;;8.50;99.90;;;;;;5052707;28;20064;-79
2022/11/29 04:21:57;;;;;;;13.68;6.80;;;8.50;99.90;;;;;;5057607;28;20420;-79
2022/11/29 04:24:59;;;;;;;13.68;6.20;;;8.50;99.90;;;;;;5015737;28;20113;-80
2022/11/29 04:27:27;;;;;;;13.13;6.05;;;8.50;99.90;;;;;;4999482;28;20097;-80
2022/11/29 04:30:13;;;;;;;11.70;5.30;;;8.50;99.90;;;;;;5032671;28;20121;-80
2022/11/29 04:33:34;;;;;;;12.95;5.85;;;8.50;99.90;;;;;;5035982;28;20430;-80
2022/11/29 04:36:25;;;;;;;12.20;5.55;;;8.50;99.90;;;;;;5034850;28;20025;-80
2022/11/29 04:39:15;;;;;;;12.95;5.63;;;8.50;99.90;;;;;;5034927;28;20048;-80
2022/11/29 04:41:41;;;;;;;14.40;6.15;;;8.60;99.90;;;;;;5036956;28;20044;-80
2022/11/29 04:44:43;;;;;;;12.57;6.28;;;8.50;99.90;;;;;;5036124;28;20029;-79
2022/11/29 04:47:36;;;;;;;14.43;5.97;;;8.50;99.90;;;;;;5036015;28;20053;-79
2022/11/29 04:50:14;;;;;;;13.00;5.70;;;8.50;99.90;;;;;;5037072;28;20064;-79
2022/11/29 04:53:19;;;;;;;11.38;5.13;;;8.60;99.90;;;;;;5035875;28;20033;-80
2022/11/29 04:56:13;;;;;;;11.05;5.70;;;8.60;99.90;;;;;;5051088;28;20060;-80
2022/11/29 04:58:58;;;;;;;10.88;5.72;;;8.60;99.90;;;;;;5051395;28;20045;-80
2022/11/29 05:01:34;;;;;;;13.77;6.15;;;8.60;99.90;;;;;;5036992;28;20033;-80
2022/11/29 05:04:22;;;;;;;17.67;6.53;;;8.60;99.90;;;;;;5035542;28;20032;-81
2022/11/29 05:07:00;;;;;;;13.75;5.72;;;8.60;99.90;;;;;;5035599;28;20026;-81
2022/11/29 05:10:01;;;;;;;11.10;5.20;;;8.50;99.90;;;;;;5036966;28;20033;-81
2022/11/29 05:13:17;;;;;;;11.85;5.13;;;8.50;99.90;;;;;;5044311;28;20072;-82
2022/11/29 05:15:54;;;;;;;12.15;5.80;;;8.50;99.90;;;;;;5043255;28;20076;-81
2022/11/29 05:18:51;;;;;;;12.48;5.90;;;8.40;99.90;;;;;;5035697;28;20045;-80
2022/11/29 05:21:59;;;;;;;10.80;5.38;;;8.50;99.90;;;;;;5035702;28;20030;-80
2022/11/29 05:24:43;;;;;;;14.40;5.80;;;8.40;99.90;;;;;;5035691;28;20021;-80
2022/11/29 05:27:30;;;;;;;10.43;5.53;;;8.40;99.90;;;;;;5036501;28;20109;-80
2022/11/29 05:30:10;;;;;;;9.02;5.28;;;8.40;99.90;;;;;;5034570;28;20111;-81
2022/11/29 05:32:48;;;;;;;9.82;5.75;;;8.40;99.90;;;;;;5035422;28;20021;-81
2022/11/29 05:35:19;;;;;;;12.98;5.90;;;8.40;99.90;;;;;;5035508;28;20467;-81
2022/11/29 05:37:51;;;;;;;11.05;5.90;;;8.40;99.90;;;;;;5036306;28;20120;-80
2022/11/29 05:40:43;;;;;;;12.35;5.95;;;8.50;99.90;;;;;;5036671;28;20061;-81
2022/11/29 05:43:36;;;;;;;11.60;5.43;;;8.50;99.90;;;;;;5035595;28;20037;-81
2022/11/29 05:46:11;;;;;;;10.82;5.07;;;8.50;99.90;;;;;;5036033;28;20030;-80
2022/11/29 05:48:46;;;;;;;10.90;5.20;;;8.50;99.90;;;;;;5036237;28;20061;-80
2022/11/29 05:51:26;;;;;;;7.38;4.78;;;8.50;99.90;;;;;;5035376;28;20029;-81
2022/11/29 05:54:18;;;;;;;8.50;5.10;;;8.50;99.90;;;;;;5035835;28;20037;-80
2022/11/29 05:57:03;;;;;;;;;;;8.50;99.90;;;;;;5035273;28;20025;-81
2022/11/29 05:59:30;;;;;;;11.60;5.65;;;8.50;99.90;;;;;;5034998;28;19912;-81
2022/11/29 06:02:05;;;;;;;10.00;4.93;;;8.50;99.90;;;;;;5035351;28;20029;-81
2022/11/29 06:04:54;;;;;;;10.15;5.35;;;8.50;99.90;;;;;;5035299;28;20052;-81
2022/11/29 06:07:54;;;;;;;13.18;6.25;;;8.50;99.90;;;;;;5035020;28;20029;-81
2022/11/29 06:10:24;;;;;;;12.02;5.68;;;8.50;99.90;;;;;;5035835;28;20093;-80
2022/11/29 06:13:07;;;;;;;12.95;5.78;;;8.50;99.90;;;;;;5033895;28;20060;-81
2022/11/29 06:16:14;;;;;;;9.73;5.28;;;8.50;99.90;;;;;;5035873;28;20029;-80
2022/11/29 06:19:18;;;;;;;9.65;5.03;;;8.60;99.90;;;;;;5033029;28;20123;-80
2022/11/29 06:21:55;;;;;;;11.07;5.28;;;8.60;99.90;;;;;;5034119;28;20378;-81
2022/11/29 06:24:38;;;;;;;8.88;5.35;;;8.60;99.90;;;;;;5035621;28;20025;-80
2022/11/29 06:27:49;;;;;;;7.97;4.85;;;8.50;99.90;;;;;;5034141;28;20121;-81
2022/11/29 06:30:19;;;;;;;8.23;4.85;;;8.60;99.90;;;;;;5034593;28;20102;-82
2022/11/29 06:32:51;;;;;;;11.15;5.40;;;8.60;99.90;;;;;;5035038;28;20052;-80
2022/11/29 06:35:38;;;;;;;8.13;4.95;;;8.60;99.90;;;;;;5035253;28;20090;-80
2022/11/29 06:38:22;;;;;;;10.27;5.20;;;8.60;99.90;;;;;;5033743;28;20072;-79
2022/11/29 06:40:49;;;;;;;8.43;4.82;;;8.60;99.90;;;;;;5034544;28;20036;-80
2022/11/29 06:43:15;;;;;;;9.73;5.55;;;8.60;99.90;;;;;;5033304;28;20029;-79
2022/11/29 06:45:49;;;;;;;9.30;5.30;;;8.60;99.90;;;;;;5035053;28;20552;-79
2022/11/29 06:48:26;;;;;;;10.68;5.93;;;8.60;99.90;;;;;;5034919;28;20029;-79
2022/11/29 06:51:10;;;;;;;9.15;6.25;;;8.60;99.90;;;;;;5033703;28;20254;-79
2022/11/29 06:54:06;;;;;;;9.00;5.70;;;8.70;99.90;;;;;;5034002;28;20060;-78
2022/11/29 06:56:31;;;;;;;9.02;5.32;;;8.60;99.90;;;;;;5034034;28;20459;-79
2022/11/29 06:59:07;;;;;;;9.60;5.80;;;8.60;99.90;;;;;;5033325;28;20040;-79
2022/11/29 07:01:32;;;;;;;7.88;4.03;;;8.60;99.90;;;;;;5033765;28;20454;-79
2022/11/29 07:04:06;;;;;;;7.43;4.63;;;8.60;99.90;;;;;;5033126;28;20109;-80
2022/11/29 07:06:34;;;;;;;8.27;4.40;;;8.60;99.90;;;;;;5033641;28;20033;-79
2022/11/29 07:09:17;;;;;;;8.30;4.00;;;8.60;99.90;;;;;;5032894;28;20436;-80
2022/11/29 07:11:44;;;;;;;8.73;4.50;;;8.60;99.90;;;;;;5034413;28;20065;-80
2022/11/29 07:14:10;;;;;;;9.10;4.90;;;8.60;99.90;;;;;;5033615;28;20387;-82
2022/11/29 07:16:54;;;;;;;10.27;4.60;;;8.60;99.90;;;;;;5033198;28;20037;-81
2022/11/29 07:19:35;;;;;;;9.50;4.60;;;8.60;99.90;;;;;;5034202;28;20079;-82
2022/11/29 07:22:18;;;;;;;8.50;4.85;;;8.60;99.90;;;;;;5033858;28;20029;-80
2022/11/29 07:25:10;;;;;;;8.77;4.90;;;8.50;99.90;;;;;;5034464;28;20029;-81
2022/11/29 07:27:54;;;;;;;11.85;4.82;;;8.50;99.90;;;;;;5033325;28;20112;-80
2022/11/29 07:30:26;;;;;;;9.40;4.95;;;8.50;99.90;;;;;;5033172;28;20038;-80
2022/11/29 07:33:01;;;;;;;11.70;5.68;;;8.60;99.90;;;;;;5054964;28;20222;-80
2022/11/29 07:35:57;;;;;;;9.40;4.88;;;8.70;99.90;;;;;;5055405;28;20081;-80
2022/11/29 07:38:35;;;;;;;12.25;6.22;;;8.70;99.90;;;;;;5056478;28;20033;-81
2022/11/29 07:41:24;;;;;;;11.18;5.88;;;8.60;99.90;;;;;;5064863;28;20116;-81
2022/11/29 07:44:24;;;;;;;13.02;6.18;;;8.70;99.90;;;;;;5050390;28;20037;-81
2022/11/29 07:46:50;;;;;;;10.63;5.70;;;8.70;99.90;;;;;;5058971;28;20104;-81
2022/11/29 07:49:15;;;;;;;12.55;6.78;;;8.70;99.90;;;;;;5070992;28;20123;-80
2022/11/29 07:51:41;;;;;;;15.23;7.47;;;8.70;99.90;;;;;;5065187;28;20059;-79
2022/11/29 07:54:09;;;;;;;18.30;8.07;;;8.60;99.90;;;;;;5072830;28;20048;-79
2022/11/29 07:56:35;;;;;;;15.05;7.80;;;8.60;99.90;;;;;;5040652;28;20530;-80
2022/11/29 07:59:00;;;;;;;17.70;8.10;;;8.60;99.90;;;;;;5064638;28;20029;-81
2022/11/29 08:01:26;;;;;;;39.03;17.08;;;8.60;99.90;;;;;;5053434;28;20374;-79
2022/11/29 08:03:51;;;;;;;23.45;10.90;;;8.60;99.90;;;;;;5066100;28;20036;-79
2022/11/29 08:06:24;;;;;;;23.17;10.57;;;8.70;99.90;;;;;;5055133;28;20108;-79
2022/11/29 08:08:49;;;;;;;16.40;8.77;;;8.70;99.90;;;;;;5070555;28;20032;-80
2022/11/29 08:11:15;;;;;;;17.80;9.23;;;8.70;99.90;;;;;;5070405;28;20028;-80
2022/11/29 08:13:40;;;;;;;20.10;9.40;;;8.70;99.90;;;;;;5059077;28;20107;-78
2022/11/29 08:16:06;;;;;;;16.08;8.93;;;8.70;99.90;;;;;;5058155;28;20549;-80
2022/11/29 08:18:32;;;;;;;18.45;9.15;;;8.70;99.90;;;;;;5055847;28;20102;-81
2022/11/29 08:20:57;;;;;;;18.38;10.02;;;8.70;99.90;;;;;;5057739;28;20036;-79
2022/11/29 08:23:23;;;;;;;17.30;9.95;;;8.70;99.90;;;;;;5071739;28;20459;-79
2022/11/29 08:25:48;;;;;;;17.70;9.13;;;8.70;99.90;;;;;;5057650;28;20025;-79
2022/11/29 08:28:14;;;;;;;18.05;9.38;;;8.70;99.90;;;;;;5051418;28;20454;-77
2022/11/29 08:30:40;;;;;;;20.23;9.70;;;8.80;99.90;;;;;;5051630;28;20041;-76
2022/11/29 08:33:05;;;;;;;21.23;10.88;;;8.70;99.90;;;;;;5049329;28;20021;-79
2022/11/29 08:35:33;;;;;;;19.70;10.43;;;8.70;99.90;;;;;;5057388;28;20544;-84
2022/11/29 08:37:59;;;;;;;18.08;10.73;;;8.70;99.90;;;;;;5050391;28;20547;-86
2022/11/29 08:40:24;;;;;;;18.13;10.23;;;8.70;99.90;;;;;;5053483;28;20025;-83
2022/11/29 08:42:50;;;;;;;19.38;10.18;;;8.70;99.90;;;;;;5055211;28;20040;-81
2022/11/29 08:45:15;;;;;;;17.02;9.85;;;8.70;99.90;;;;;;5053283;28;20108;-82
2022/11/29 08:47:41;;;;;;;17.42;9.93;;;8.70;99.90;;;;;;5059424;28;20040;-83
2022/11/29 08:50:11;;;;;;;20.58;10.93;;;8.70;99.90;;;;;;5060352;28;20242;-83
2022/11/29 08:55:30;;;;;;;18.55;10.48;;;8.80;99.90;;;;;;5062295;28;20092;-82
2022/11/29 08:58:02;;;;;;;19.58;10.48;;;8.70;99.90;;;;;;5071930;28;20028;-80
2022/11/29 09:00:28;;;;;;;18.10;9.82;;;8.80;99.90;;;;;;5067376;28;20020;-82
2022/11/29 09:02:54;;;;;;;17.25;9.68;;;8.80;99.90;;;;;;5047802;28;20093;-85
2022/11/29 09:05:19;;;;;;;16.67;9.85;;;8.80;99.90;;;;;;5063236;28;20017;-83
2022/11/29 09:07:45;;;;;;;17.27;9.27;;;8.80;99.90;;;;;;5074245;28;20103;-83
2022/11/29 09:10:11;;;;;;;15.65;9.27;;;8.80;99.90;;;;;;5066608;28;20087;-83
2022/11/29 09:12:38;;;;;;;17.33;9.95;;;8.80;99.90;;;;;;5071517;28;20040;-81
2022/11/29 09:15:07;;;;;;;15.80;8.82;;;8.80;99.90;;;;;;5067770;28;20166;-81
2022/11/29 09:17:33;;;;;;;16.58;9.05;;;8.80;99.90;;;;;;5063361;28;20032;-80
2022/11/29 09:19:58;;;;;;;16.80;9.82;;;8.80;99.90;;;;;;5062991;28;20326;-79
2022/11/29 09:22:24;;;;;;;14.40;8.98;;;8.80;99.90;;;;;;5061149;28;20016;-81
2022/11/29 09:24:49;;;;;;;15.20;9.60;;;8.80;99.90;;;;;;5060193;28;20477;-79
2022/11/29 09:27:15;;;;;;;14.20;9.35;;;8.80;99.90;;;;;;5063737;28;20485;-80
2022/11/29 09:29:41;;;;;;;17.52;9.43;;;8.80;99.90;;;;;;5069397;28;20071;-80
2022/11/29 09:32:06;;;;;;;16.17;8.93;;;8.80;99.90;;;;;;5063499;28;20032;-84
2022/11/29 09:34:32;;;;;;;16.55;8.95;;;8.80;99.90;;;;;;5055723;28;20047;-86
2022/11/29 09:36:58;;;;;;;16.48;8.88;;;8.80;99.90;;;;;;5054504;28;20025;-82
2022/11/29 09:39:23;;;;;;;15.75;8.63;;;8.90;99.90;;;;;;5064864;28;20115;-79
2022/11/29 09:42:08;;;;;;;15.27;8.38;;;8.90;99.90;;;;;;5061349;28;20051;-79
2022/11/29 09:44:49;;;;;;;15.32;8.73;;;8.90;99.90;;;;;;5057718;28;20527;-78
2022/11/29 09:47:36;;;;;;;14.55;8.38;;;8.90;99.90;;;;;;5066202;28;20028;-78
2022/11/29 09:50:24;;;;;;;13.63;7.85;;;8.90;99.90;;;;;;5070489;28;20039;-78
2022/11/29 09:53:27;;;;;;;14.35;8.50;;;8.90;99.90;;;;;;5036523;28;20029;-76
2022/11/29 09:56:18;;;;;;;13.70;8.48;;;9.00;99.90;;;;;;5062547;28;20039;-77
2022/11/29 09:59:04;;;;;;;16.15;8.10;;;9.00;99.90;;;;;;5043613;28;20054;-79
2022/11/29 10:01:36;;;;;;;14.57;8.50;;;9.00;99.90;;;;;;5055604;28;20040;-78
2022/11/29 10:04:16;;;;;;;14.32;7.88;;;9.00;99.90;;;;;;5064099;28;20470;-78
2022/11/29 10:06:51;;;;;;;15.13;8.70;;;9.10;99.90;;;;;;5043559;28;20402;-78
2022/11/29 10:09:25;;;;;;;13.48;8.50;;;9.10;99.90;;;;;;5066245;28;20037;-79
2022/11/29 10:12:00;;;;;;;15.60;9.35;;;9.00;99.90;;;;;;5068231;28;20482;-78
2022/11/29 10:14:31;;;;;;;16.17;9.00;;;9.00;99.90;;;;;;5058621;28;20480;-79
2022/11/29 10:17:11;;;;;;;18.27;9.85;;;8.90;99.90;;;;;;5062497;28;20021;-78
2022/11/29 10:19:43;;;;;;;18.38;10.50;;;9.00;99.90;;;;;;5065952;28;20036;-78
2022/11/29 10:22:08;;;;;;;20.60;10.20;;;9.00;99.90;;;;;;5055888;28;20025;-79
2022/11/29 10:24:37;;;;;;;18.30;10.50;;;9.00;99.90;;;;;;5070959;28;20028;-79
2022/11/29 10:27:17;;;;;;;20.55;10.70;;;9.00;99.90;;;;;;5052454;28;20421;-79
2022/11/29 10:29:43;;;;;;;17.38;9.90;;;9.00;99.90;;;;;;5066302;28;20047;-78
2022/11/29 10:32:13;;;;;;;19.92;10.40;;;9.10;99.90;;;;;;5058020;28;20116;-78
2022/11/29 10:34:39;;;;;;;17.63;10.07;;;9.10;99.90;;;;;;5044013;28;20462;-78
2022/11/29 10:37:12;;;;;;;16.48;10.50;;;9.20;99.90;;;;;;5066850;28;20028;-78
2022/11/29 10:39:43;;;;;;;15.85;9.80;;;9.20;99.90;;;;;;5068948;28;20032;-79
2022/11/29 10:45:01;;;;;;;18.77;10.13;;;9.20;99.90;;;;;;5063450;28;20114;-78
2022/11/29 10:47:27;;;;;;;16.95;9.95;;;9.30;99.90;;;;;;5063772;28;20265;-77
2022/11/29 10:49:53;;;;;;;19.42;10.52;;;9.30;99.90;;;;;;5053660;28;20475;-78
2022/11/29 10:52:21;;;;;;;18.80;10.65;;;9.30;99.90;;;;;;5053930;28;20029;-79
2022/11/29 10:54:48;;;;;;;14.75;10.18;;;9.30;99.90;;;;;;5055799;28;20044;-79
2022/11/29 10:57:17;;;;;;;17.02;10.27;;;9.40;99.90;;;;;;5062356;28;20059;-78
2022/11/29 10:59:59;;;;;;;16.60;10.27;;;9.40;99.90;;;;;;5061826;28;20124;-78
2022/11/29 11:02:26;;;;;;;15.98;9.50;;;9.40;99.90;;;;;;5058144;28;20481;-78
2022/11/29 11:04:52;;;;;;;17.80;10.25;;;9.50;99.90;;;;;;5061075;28;20032;-77
2022/11/29 11:07:29;;;;;;;16.05;10.30;;;9.40;99.90;;;;;;5064208;28;20029;-78
2022/11/29 11:09:56;;;;;;;16.90;10.55;;;9.40;99.90;;;;;;5069454;28;20123;-78
2022/11/29 11:12:30;;;;;;;18.27;11.10;;;9.40;99.90;;;;;;5058280;28;20044;-78
2022/11/29 11:15:27;;;;;;;18.15;11.00;;;9.50;99.90;;;;;;5067759;28;20470;-79
2022/11/29 11:18:03;;;;;;;28.63;15.13;;;9.60;99.90;;;;;;5067646;28;20039;-77
2022/11/29 11:20:31;;;;;;;17.70;10.88;;;9.70;99.90;;;;;;5056971;28;20039;-79
2022/11/29 11:23:03;;;;;;;21.00;10.73;;;9.70;99.90;;;;;;5067372;28;20095;-80
2022/11/29 11:25:39;;;;;;;18.88;11.13;;;9.70;99.90;;;;;;5064778;28;20110;-79
2022/11/29 11:28:20;;;;;;;22.55;11.48;;;9.60;99.90;;;;;;5054986;28;20398;-79
2022/11/29 11:31:03;;;;;;;18.48;11.35;;;9.60;99.90;;;;;;5041432;28;20035;-78
2022/11/29 11:33:32;;;;;;;18.27;11.32;;;9.70;99.90;;;;;;5064665;28;20021;-80
2022/11/29 11:36:06;;;;;;;20.83;12.30;;;9.70;99.90;;;;;;5056592;28;20127;-79
2022/11/29 11:38:34;;;;;;;21.27;12.85;;;9.70;99.90;;;;;;5070263;28;20132;-78
2022/11/29 11:44:30;;;;;;;20.77;12.00;;;9.70;99.90;;;;;;5057062;28;20053;-79
2022/11/29 11:46:56;;;;;;;19.70;11.95;;;9.70;99.90;;;;;;5066262;28;20036;-78
2022/11/29 11:49:44;;;;;;;22.40;11.50;;;9.70;99.90;;;;;;5052891;28;20384;-77
2022/11/29 11:52:18;;;;;;;20.27;11.13;;;9.70;99.90;;;;;;5053549;28;20032;-78
2022/11/29 11:54:49;;;;;;;19.35;10.75;;;9.70;99.90;;;;;;5068343;28;20032;-79
2022/11/29 11:57:19;;;;;;;21.25;10.88;;;9.70;99.90;;;;;;5061297;28;20021;-78
2022/11/29 11:59:50;;;;;;;19.40;10.05;;;9.70;99.90;;;;;;5060091;28;20363;-79
2022/11/29 12:02:34;;;;;;;19.47;10.80;;;9.70;99.90;;;;;;5058194;28;20029;-79
2022/11/29 12:05:01;;;;;;;18.02;9.85;;;9.70;99.90;;;;;;5072341;28;20059;-78
2022/11/29 12:07:34;;;;;;;16.58;10.07;;;9.70;99.90;;;;;;5060479;28;20029;-78
2022/11/29 12:10:05;;;;;;;19.88;11.25;;;9.80;99.90;;;;;;5051943;28;20075;-79
2022/11/29 12:12:40;;;;;;;20.67;11.43;;;9.80;99.90;;;;;;5054553;28;20051;-79
2022/11/29 12:15:13;;;;;;;26.13;11.65;;;9.80;99.90;;;;;;5064176;28;20040;-79
2022/11/29 12:17:40;;;;;;;21.05;11.30;;;9.80;99.90;;;;;;5051106;28;20036;-78
2022/11/29 12:20:43;;;;;;;20.02;11.27;;;9.80;99.90;;;;;;5068305;28;20117;-78
2022/11/29 12:23:11;;;;;;;;;;;9.80;99.90;;;;;;5047882;28;20028;-81
2022/11/29 12:26:01;;;;;;;21.63;12.27;;;9.80;99.90;;;;;;5060383;28;19912;-82
2022/11/29 12:28:30;;;;;;;21.67;11.15;;;9.80;99.90;;;;;;5071500;28;20020;-81
2022/11/29 12:31:01;;;;;;;22.48;11.73;;;9.70;99.90;;;;;;5063156;28;20078;-80
2022/11/29 12:33:56;;;;;;;20.75;10.70;;;9.80;99.90;;;;;;5048307;28;20022;-81
2022/11/29 12:37:04;;;;;;;22.83;12.13;;;9.70;99.90;;;;;;5085309;28;20033;-80
2022/11/29 12:39:52;;;;;;;21.55;10.77;;;9.80;99.90;;;;;;5046289;28;20124;-78
2022/11/29 12:42:39;;;;;;;19.35;10.13;;;9.80;99.90;;;;;;5071812;28;20055;-80
2022/11/29 12:45:20;;;;;;;22.45;10.90;;;9.70;99.90;;;;;;5062312;28;20118;-78
2022/11/29 12:48:02;;;;;;;18.00;9.98;;;9.80;99.90;;;;;;5062141;28;20119;-80
2022/11/29 12:51:07;;;;;;;22.13;10.65;;;9.80;99.90;;;;;;5072439;28;20043;-79
2022/11/29 12:53:56;;;;;;;22.80;11.15;;;9.80;99.90;;;;;;5067545;28;20037;-79
2022/11/29 12:56:29;;;;;;;20.25;9.63;;;9.80;99.90;;;;;;5039062;28;20033;-79
2022/11/29 12:58:54;;;;;;;20.38;10.40;;;9.80;99.90;;;;;;5068989;28;20119;-79
2022/11/29 13:01:41;;;;;;;20.48;10.38;;;9.80;99.90;;;;;;5055013;28;20531;-79
2022/11/29 13:04:32;;;;;;;20.10;9.50;;;9.70;99.90;;;;;;5035780;28;20493;-79
2022/11/29 13:07:29;;;;;;;21.35;11.48;;;9.80;99.90;;;;;;5047959;28;20470;-79
2022/11/29 13:10:01;;;;;;;21.38;10.43;;;9.90;99.90;;;;;;5060870;28;20480;-79
2022/11/29 13:12:40;;;;;;;22.52;10.80;;;9.90;99.90;;;;;;5074299;28;20044;-79
2022/11/29 13:15:19;;;;;;;23.23;11.18;;;9.90;99.90;;;;;;5075348;28;20517;-79
2022/11/29 13:18:37;;;;;;;20.27;11.07;;;9.90;99.90;;;;;;5061677;28;20129;-79
2022/11/29 13:21:11;;;;;;;23.25;11.70;;;9.90;99.90;;;;;;5023556;28;20029;-79
2022/11/29 13:23:40;;;;;;;18.20;10.50;;;9.80;99.90;;;;;;5024689;28;20026;-79
2022/11/29 13:26:09;;;;;;;22.50;11.05;;;9.80;99.90;;;;;;5016397;28;20045;-79
2022/11/29 13:28:38;;;;;;;21.95;11.52;;;9.80;99.90;;;;;;5020803;28;20045;-79
2022/11/29 13:31:14;;;;;;;23.27;11.70;;;9.80;99.90;;;;;;5024965;28;20492;-79
2022/11/29 13:34:14;;;;;;;21.00;10.27;;;9.80;99.90;;;;;;5022090;28;20055;-79
2022/11/29 13:36:54;;;;;;;23.15;11.55;;;9.70;99.90;;;;;;4997151;28;20025;-79
2022/11/29 13:39:41;;;;;;;29.20;11.57;;;9.70;99.90;;;;;;5032820;28;20107;-79
2022/11/29 13:42:09;;;;;;;23.35;10.80;;;9.60;99.90;;;;;;5036293;28;20059;-79
2022/11/29 13:44:37;;;;;;;21.27;10.68;;;9.70;99.90;;;;;;5004323;28;20037;-79
2022/11/29 13:47:09;;;;;;;22.20;11.63;;;9.60;99.90;;;;;;5028515;28;20449;-79